Oakbrook, Washington
Current Conditions -  °F | °C
As of 6:27 AM on Thursday 30 Oct 2014 (Local Time) from KTCM Reporting Station
Light Rain Light Rain  
Wind Chill: 52°   Ceiling: 8500
Heat Index: 52°   Visibility: 10mi
Dew Point: 52°   Wind: 1mph
Humidity: 100%   Direction: 250°WSW
Pressure: 29.89"   Gusts: NA
Location:  47.1809°N, 122.548°W
Report Text: KTCM 301327Z AUTO 25001KT 10SM -RA FEW055 OVC085 11/11 A2989 RMK AO2 RAB1301E1325
Loading
Personal Weather Stations






























Interactive Weather Map
Tropical Storm Tracking
New forecast layout! Learn more

10-Day Weather Forecast

Advertisements
Track Severe Weather on mobile